Hunter Army Air Field
KSVN : now visible

Airfield :











YOU CAN JOIN US ON...

 
LOGIN :

Register | Disclaimer

   EN    FR    IT 

 









Legend :    VFR   Marginal VFR   IFR   Intensive IFR   Very Intensive IFR
Visi :
Ceiling :
>= 8 km
>= 3000ft
5 to 8 km
1000 to 3000 ft
1500m to 5 km
500 to 1000 ft
800 to 1500m
200 to 500 ft
< 800m
< 200 ft
Symbols :   Thunderstorms  Fog  Heavy snow  Heavy precipitations  Wind > 20 kt







- Airport Elevation : 41 ft


KSVN - Hunter Army Air Field

CURRENT METAR :
  • 161356Z AUTO 01011KT 10SM CLR 28/22 A3000 RMK AO2 SLP162 T02750220 $

EXPIRED METARs :
  • 161256Z AUTO 01009KT 10SM CLR 26/22 A2999 RMK AO2 SLP158 T02600220 $
  • 161156Z AUTO 36009KT 10SM CLR 24/22 A2998 RMK AO2 SLP155 T02390218 10250 20237 52009 $

TAF AMD TAF KSVN
Valid from the 16 at 13:00 until the 17 at 18:00 UTC


161330Z 1613/1718 01010G15KT 9999 SCT030 SCT200 QNH2994INS
BECMG 1616/1617 02010G20KT 9999 BKN040 QNH2995INS
BECMG 1623/1624 VRB06KT 9999 FEW040 SCT200 QNH2991INS
BECMG 1705/1706 VRB04KT 8000 BR FEW005 QNH2992INS
BECMG 1708/1709 03007KT 9999 NSW SCT020 QNH2995INS TX30/1619Z TN23/1711Z
No reported NOTAMs for that airfield.



MET'MAP, your aeronautical weather chart ! - Copyright ORBIFLY December 2007 - Disclaimer

ORBIFLY MET'MAP TEAM :

Programming & Development : Alexandra Zaïnal
Concept & Development : Baudouin d'Aumeries
Co-Development & Prog : Marc-Olivier Méhu
Technical & hardware support : Manuel Goepfert

Contact : metmap@orbifly.com




SOURCES & CREDITS :

   NOAA       Earth
Advisory